createdAt,value
2022-10-05T00:01:33.159Z,102306.74
2022-10-05T00:04:24.989Z,102307.23
2022-10-05T00:07:17.228Z,102311.80
2022-10-05T00:09:57.364Z,102310.99
2022-10-05T00:12:26.267Z,102310.20
2022-10-05T00:15:00.310Z,102318.31
2022-10-05T00:17:31.320Z,102314.20
2022-10-05T00:19:58.978Z,102303.99
2022-10-05T00:22:34.921Z,102309.62
2022-10-05T00:25:12.278Z,102315.34
2022-10-05T00:27:40.102Z,102311.55
2022-10-05T00:30:20.618Z,102320.96
2022-10-05T00:32:48.521Z,102309.48
2022-10-05T00:35:18.053Z,102310.76
2022-10-05T00:37:46.838Z,102316.94
2022-10-05T00:40:28.858Z,102299.41
2022-10-05T00:43:04.437Z,102307.46
2022-10-05T00:45:42.728Z,102301.73
2022-10-05T00:48:22.767Z,102297.23
2022-10-05T00:51:12.937Z,102296.11
2022-10-05T00:53:46.314Z,102289.54
2022-10-05T00:56:19.772Z,102290.13
2022-10-05T00:58:53.418Z,102287.05
2022-10-05T01:01:34.495Z,102287.15
2022-10-05T01:04:39.287Z,102287.71
2022-10-05T01:07:22.023Z,102291.40
2022-10-05T01:10:05.324Z,102286.01
2022-10-05T01:12:49.378Z,102287.02
2022-10-05T01:15:44.758Z,102292.09
2022-10-05T01:18:25.933Z,102293.30
2022-10-05T01:21:18.388Z,102286.89
2022-10-05T01:23:49.041Z,102288.36
2022-10-05T01:26:22.723Z,102281.95
2022-10-05T01:29:13.328Z,102274.50
2022-10-05T01:31:55.716Z,102276.88
2022-10-05T01:34:33.845Z,102277.70
2022-10-05T01:37:10.251Z,102280.09
2022-10-05T01:39:54.613Z,102279.30
2022-10-05T01:42:34.240Z,102271.88
2022-10-05T01:45:30.537Z,102262.37
2022-10-05T01:48:03.517Z,102262.46
2022-10-05T01:50:31.088Z,102258.93
2022-10-05T01:53:07.756Z,102257.88
2022-10-05T01:55:54.051Z,102256.38
2022-10-05T01:58:54.092Z,102256.05
2022-10-05T02:01:43.938Z,102257.39
2022-10-05T02:04:56.979Z,102259.12
2022-10-05T02:07:48.074Z,102252.72
2022-10-05T02:10:39.511Z,102255.76
2022-10-05T02:13:15.305Z,102255.76
2022-10-05T02:15:53.553Z,102256.58
2022-10-05T02:18:26.156Z,102264.36
2022-10-05T02:20:58.342Z,102254.16
2022-10-05T02:23:32.215Z,102257.03
2022-10-05T02:26:01.944Z,102257.03
2022-10-05T02:28:36.666Z,102262.76
2022-10-05T02:31:12.406Z,102257.13
2022-10-05T02:33:40.255Z,102259.98
2022-10-05T02:36:18.519Z,102256.67
2022-10-05T02:42:13.880Z,102258.64
2022-10-05T02:45:10.772Z,102258.64
2022-10-05T02:47:53.455Z,102252.55
2022-10-05T02:50:57.034Z,102244.91
2022-10-05T02:53:24.660Z,102247.29
2022-10-05T02:56:36.668Z,102248.76
2022-10-05T02:59:35.177Z,102249.68
2022-10-05T03:02:22.384Z,102245.66
2022-10-05T03:05:15.861Z,102248.17
2022-10-05T03:08:10.639Z,102241.77
2022-10-05T03:10:46.711Z,102247.91
2022-10-05T03:13:56.478Z,102246.80
2022-10-05T03:16:39.121Z,102238.56
2022-10-05T03:19:15.386Z,102237.97
2022-10-05T03:21:48.977Z,102247.06
2022-10-05T03:24:38.352Z,102238.13
2022-10-05T03:27:32.601Z,102234.47
2022-10-05T03:30:23.857Z,102235.02
2022-10-05T03:33:12.566Z,102235.81
2022-10-05T03:36:06.702Z,102235.02
2022-10-05T03:39:00.457Z,102238.23
2022-10-05T03:41:55.227Z,102236.63
2022-10-05T03:44:30.652Z,102232.77
2022-10-05T03:47:26.345Z,102237.45
2022-10-05T03:50:18.960Z,102240.33
2022-10-05T03:52:51.960Z,102239.05
2022-10-05T03:55:25.183Z,102233.33
2022-10-05T03:57:57.154Z,102234.47
2022-10-05T04:00:24.954Z,102240.65
2022-10-05T04:03:01.745Z,102234.14
2022-10-05T04:05:34.590Z,102237.31
2022-10-05T04:08:08.317Z,102238.13
2022-10-05T04:10:47.828Z,102234.73
2022-10-05T04:13:37.790Z,102237.97
2022-10-05T04:16:15.467Z,102244.80
2022-10-05T04:19:00.202Z,102244.38
2022-10-05T04:21:33.662Z,102240.26
2022-10-05T04:24:06.449Z,102234.63
2022-10-05T04:26:54.582Z,102235.78
2022-10-05T04:29:51.388Z,102237.97
2022-10-05T04:32:24.832Z,102239.48
2022-10-05T04:35:19.695Z,102230.41
2022-10-05T04:38:18.383Z,102237.28
2022-10-05T04:41:23.493Z,102237.28
2022-10-05T04:44:17.037Z,102239.34
2022-10-05T04:47:09.709Z,102239.57
2022-10-05T04:49:59.245Z,102241.17
2022-10-05T04:52:45.162Z,102253.44
2022-10-05T04:55:21.702Z,102255.76
2022-10-05T04:58:06.178Z,102263.41
2022-10-05T05:01:09.414Z,102264.10
2022-10-05T05:03:37.111Z,102266.19
2022-10-05T05:06:25.630Z,102262.49
2022-10-05T05:09:12.097Z,102258.87
2022-10-05T05:11:39.653Z,102256.35
2022-10-05T05:14:10.178Z,102255.43
2022-10-05T05:16:46.099Z,102263.48
2022-10-05T05:19:36.726Z,102260.14
2022-10-05T05:22:26.068Z,102264.16
2022-10-05T05:25:26.099Z,102255.56
2022-10-05T05:27:58.800Z,102251.77
2022-10-05T05:30:44.839Z,102255.79
2022-10-05T05:33:44.828Z,102256.97
2022-10-05T05:36:18.332Z,102253.37
2022-10-05T05:38:54.195Z,102244.45
2022-10-05T05:41:36.767Z,102253.14
2022-10-05T05:44:21.523Z,102259.68
2022-10-05T05:47:09.838Z,102255.56
2022-10-05T05:50:07.060Z,102259.23
2022-10-05T05:52:52.654Z,102253.63
2022-10-05T05:55:29.909Z,102256.58
2022-10-05T05:58:04.987Z,102258.64
2022-10-05T06:01:01.737Z,102265.27
2022-10-05T06:03:43.700Z,102267.79
2022-10-05T06:06:15.753Z,102275.12
2022-10-05T06:08:54.208Z,102271.00
2022-10-05T06:11:42.209Z,102266.52
2022-10-05T06:14:18.350Z,102268.12
2022-10-05T06:16:59.042Z,102270.08
2022-10-05T06:19:29.110Z,102267.56
2022-10-05T06:22:17.540Z,102270.80
2022-10-05T06:25:05.046Z,102277.63
2022-10-05T06:27:40.373Z,102282.93
2022-10-05T06:30:11.031Z,102281.66
2022-10-05T06:33:13.318Z,102282.84
2022-10-05T06:36:13.826Z,102280.74
2022-10-05T06:39:03.120Z,102278.26
2022-10-05T06:41:49.881Z,102282.97
2022-10-05T06:44:26.870Z,102290.09
2022-10-05T06:47:12.691Z,102286.63
2022-10-05T06:50:13.733Z,102297.87
2022-10-05T06:52:59.379Z,102301.02
2022-10-05T06:55:45.808Z,102299.74
2022-10-05T06:58:32.187Z,102304.13
2022-10-05T07:01:06.769Z,102311.45
2022-10-05T07:03:49.544Z,102312.59
2022-10-05T07:06:22.032Z,102315.47
2022-10-05T07:09:14.752Z,102315.34
2022-10-05T07:11:54.642Z,102328.06
2022-10-05T07:14:29.882Z,102327.30
2022-10-05T07:17:18.537Z,102322.50
2022-10-05T07:19:49.113Z,102320.99
2022-10-05T07:22:24.780Z,102318.48
2022-10-05T07:25:36.898Z,102327.30
2022-10-05T07:28:28.600Z,102330.45
2022-10-05T07:31:07.671Z,102332.18
2022-10-05T07:33:52.709Z,102331.52
2022-10-05T07:36:57.758Z,102330.48
2022-10-05T07:39:58.989Z,102341.83
2022-10-05T07:43:00.964Z,102339.87
2022-10-05T07:45:50.758Z,102343.43
2022-10-05T07:48:23.551Z,102342.97
2022-10-05T07:51:00.949Z,102349.05
2022-10-05T07:53:41.011Z,102346.50
2022-10-05T07:56:33.786Z,102346.86
2022-10-05T07:59:08.963Z,102344.80
2022-10-05T08:01:39.584Z,102346.86
2022-10-05T08:04:22.506Z,102345.49
2022-10-05T08:06:59.457Z,102351.47
2022-10-05T08:09:34.310Z,102340.65
2022-10-05T08:12:35.874Z,102339.73
2022-10-05T08:15:18.858Z,102342.84
2022-10-05T08:18:03.610Z,102347.19
2022-10-05T08:20:41.047Z,102343.76
2022-10-05T08:23:20.885Z,102351.08
2022-10-05T08:26:05.703Z,102342.35
2022-10-05T08:28:40.332Z,102353.34
2022-10-05T08:31:28.401Z,102351.63
2022-10-05T08:34:06.349Z,102344.18
2022-10-05T08:36:49.222Z,102353.44
2022-10-05T08:39:22.754Z,102361.80
2022-10-05T08:42:16.541Z,102359.62
2022-10-05T08:45:17.163Z,102362.82
2022-10-05T08:48:09.421Z,102367.53
2022-10-05T08:51:01.150Z,102364.52
2022-10-05T08:53:42.809Z,102364.39
2022-10-05T08:56:32.139Z,102376.06
2022-10-05T08:59:11.691Z,102367.46
2022-10-05T09:02:13.560Z,102367.01
2022-10-05T09:05:10.260Z,102367.23
2022-10-05T09:08:02.608Z,102359.16
2022-10-05T09:10:59.294Z,102363.15
2022-10-05T09:14:09.070Z,102362.55
2022-10-05T09:16:49.409Z,102366.02
2022-10-05T09:19:42.011Z,102371.02
2022-10-05T09:22:25.237Z,102364.52
2022-10-05T09:24:53.119Z,102365.99
2022-10-05T09:27:40.459Z,102360.79
2022-10-05T09:30:21.643Z,102361.12
2022-10-05T09:33:27.202Z,102357.75
2022-10-05T09:36:12.102Z,102351.90
2022-10-05T09:38:51.988Z,102356.90
2022-10-05T09:41:28.569Z,102351.80
2022-10-05T09:44:24.694Z,102345.09
2022-10-05T09:47:29.783Z,102344.84
2022-10-05T09:50:18.941Z,102343.10
2022-10-05T09:52:49.538Z,102339.15
2022-10-05T09:55:50.710Z,102343.79
2022-10-05T09:58:31.490Z,102337.09
2022-10-05T10:01:33.533Z,102345.42
2022-10-05T10:04:31.558Z,102344.80
2022-10-05T10:07:22.234Z,102343.85
2022-10-05T10:10:14.212Z,102333.81
2022-10-05T10:13:18.415Z,102335.09
2022-10-05T10:16:10.631Z,102335.74
2022-10-05T10:19:13.792Z,102336.37
2022-10-05T10:22:07.934Z,102337.64
2022-10-05T10:25:04.864Z,102328.87
2022-10-05T10:27:55.269Z,102337.05
2022-10-05T10:30:41.101Z,102339.60
2022-10-05T10:33:29.770Z,102332.70
2022-10-05T10:36:06.197Z,102331.55
2022-10-05T10:38:42.457Z,102324.01
2022-10-05T10:41:30.203Z,102318.41
2022-10-05T10:44:33.281Z,102328.78
2022-10-05T10:47:34.696Z,102322.70
2022-10-05T10:50:29.429Z,102312.95
2022-10-05T10:53:29.822Z,102315.17
2022-10-05T10:56:19.066Z,102316.12
2022-10-05T10:59:00.403Z,102316.41
2022-10-05T11:01:51.617Z,102313.84
2022-10-05T11:04:58.423Z,102304.09
2022-10-05T11:08:03.844Z,102306.84
2022-10-05T11:11:03.793Z,102297.13
2022-10-05T11:14:03.862Z,102291.86
2022-10-05T11:16:50.409Z,102288.36
2022-10-05T11:20:02.508Z,102281.04
2022-10-05T11:22:51.833Z,102272.11
2022-10-05T11:25:35.926Z,102285.26
2022-10-05T11:28:26.729Z,102281.76
2022-10-05T11:31:13.114Z,102272.17
2022-10-05T11:34:22.500Z,102271.42
2022-10-05T11:37:02.121Z,102261.52
2022-10-05T11:39:34.398Z,102259.72
2022-10-05T11:42:01.924Z,102261.81
2022-10-05T11:44:52.932Z,102252.66
2022-10-05T11:47:30.165Z,102254.26
2022-10-05T11:50:21.512Z,102252.45
2022-10-05T11:52:59.447Z,102252.75
2022-10-05T11:56:04.415Z,102246.31
2022-10-05T11:58:44.875Z,102239.70
2022-10-05T12:01:40.478Z,102232.12
2022-10-05T12:04:46.496Z,102236.56
2022-10-05T12:07:34.243Z,102235.42
2022-10-05T12:10:22.205Z,102237.48
2022-10-05T12:12:59.109Z,102234.02
2022-10-05T12:15:41.990Z,102231.07
2022-10-05T12:18:16.948Z,102214.49
2022-10-05T12:21:03.258Z,102209.45
2022-10-05T12:23:55.896Z,102211.19
2022-10-05T12:26:45.784Z,102217.08
2022-10-05T12:29:27.466Z,102204.52
2022-10-05T12:32:09.550Z,102205.44
2022-10-05T12:34:51.293Z,102204.26
2022-10-05T12:37:37.670Z,102193.11
2022-10-05T12:40:29.064Z,102195.13
2022-10-05T12:43:21.620Z,102195.52
2022-10-05T12:46:04.423Z,102189.64
2022-10-05T12:48:50.278Z,102184.77
2022-10-05T12:51:30.259Z,102174.14
2022-10-05T12:54:00.471Z,102173.42
2022-10-05T12:56:42.618Z,102176.20
2022-10-05T12:59:22.315Z,102175.22
2022-10-05T13:01:55.875Z,102165.54
2022-10-05T13:04:52.154Z,102168.22
2022-10-05T13:07:42.712Z,102161.91
2022-10-05T13:10:29.123Z,102165.60
2022-10-05T13:13:18.150Z,102169.01
2022-10-05T13:16:02.866Z,102165.60
2022-10-05T13:18:55.516Z,102165.60
2022-10-05T13:22:04.547Z,102166.72
2022-10-05T13:24:41.102Z,102153.63
2022-10-05T13:27:47.144Z,102152.36
2022-10-05T13:30:20.577Z,102155.04
2022-10-05T13:32:54.161Z,102145.37
2022-10-05T13:35:44.988Z,102156.48
2022-10-05T13:38:43.276Z,102150.79
2022-10-05T13:41:29.556Z,102146.38
2022-10-05T13:44:24.972Z,102149.06
2022-10-05T13:47:39.934Z,102142.55
2022-10-05T13:50:36.272Z,102140.52
2022-10-05T13:53:10.580Z,102136.11
2022-10-05T13:55:50.760Z,102134.87
2022-10-05T13:58:40.423Z,102136.80
2022-10-05T14:01:35.862Z,102131.27
2022-10-05T14:04:25.745Z,102137.62
2022-10-05T14:06:53.749Z,102130.02
2022-10-05T14:09:21.350Z,102131.63
2022-10-05T14:12:06.451Z,102134.02
2022-10-05T14:14:44.906Z,102134.31
2022-10-05T14:17:38.641Z,102144.28
2022-10-05T14:20:32.109Z,102141.41
2022-10-05T14:23:03.459Z,102123.75
2022-10-05T14:25:32.486Z,102128.23
2022-10-05T14:28:03.129Z,102125.35
2022-10-05T14:30:33.015Z,102143.47
2022-10-05T14:33:06.807Z,102123.23
2022-10-05T14:35:55.066Z,102132.25
2022-10-05T14:38:27.444Z,102124.05
2022-10-05T14:41:28.620Z,102130.12
2022-10-05T14:44:05.132Z,102123.84
2022-10-05T14:46:34.067Z,102119.92
2022-10-05T14:49:22.604Z,102124.41
2022-10-05T14:51:54.485Z,102122.60
2022-10-05T14:54:28.580Z,102120.80
2022-10-05T14:57:13.415Z,102122.38
2022-10-05T15:00:17.680Z,102116.88
2022-10-05T15:03:28.425Z,102116.39
2022-10-05T15:06:01.380Z,102107.46
2022-10-05T15:08:38.990Z,102107.76
2022-10-05T15:11:07.641Z,102109.62
2022-10-05T15:13:44.701Z,102110.18
2022-10-05T15:16:32.104Z,102107.86
2022-10-05T15:19:17.147Z,102112.14
2022-10-05T15:21:47.586Z,102107.92
2022-10-05T15:24:25.355Z,102104.00
2022-10-05T15:26:56.667Z,102105.86
2022-10-05T15:29:52.026Z,102106.94
2022-10-05T15:32:31.506Z,102105.38
2022-10-05T15:35:29.184Z,102103.54
2022-10-05T15:38:21.917Z,102103.84
2022-10-05T15:41:00.599Z,102107.27
2022-10-05T15:43:42.463Z,102099.91
2022-10-05T15:46:29.977Z,102098.87
2022-10-05T15:49:09.779Z,102107.86
2022-10-05T15:51:56.550Z,102107.86
2022-10-05T15:54:55.637Z,102116.23
2022-10-05T15:57:58.564Z,102114.37
2022-10-05T16:00:27.970Z,102111.20
2022-10-05T16:03:26.115Z,102116.72
2022-10-05T16:06:48.269Z,102114.33
2022-10-05T16:09:45.505Z,102121.13
2022-10-05T16:12:34.530Z,102122.18
2022-10-05T16:15:17.723Z,102112.63
2022-10-05T16:18:33.342Z,102116.03
2022-10-05T16:21:30.326Z,102117.57
2022-10-05T16:24:40.695Z,102119.40
2022-10-05T16:27:19.535Z,102119.34
2022-10-05T16:30:01.522Z,102124.53
2022-10-05T16:32:39.527Z,102121.59
2022-10-05T16:35:22.300Z,102133.36
2022-10-05T16:38:14.696Z,102138.59
2022-10-05T16:40:53.163Z,102141.41
2022-10-05T16:43:26.873Z,102140.52
2022-10-05T16:46:22.095Z,102145.95
2022-10-05T16:48:52.916Z,102158.25
2022-10-05T16:51:42.483Z,102158.67
2022-10-05T16:54:20.489Z,102158.31
2022-10-05T16:57:14.225Z,102164.52
2022-10-05T17:00:18.531Z,102172.54
2022-10-05T17:03:12.306Z,102168.74
2022-10-05T17:05:58.502Z,102169.98
2022-10-05T17:08:50.823Z,102179.57
2022-10-05T17:11:24.869Z,102179.77
2022-10-05T17:14:08.300Z,102189.67
2022-10-05T17:16:58.774Z,102192.95
2022-10-05T17:19:54.258Z,102195.76
2022-10-05T17:22:24.649Z,102206.91
2022-10-05T17:25:17.124Z,102206.16
2022-10-05T17:27:57.281Z,102209.13
2022-10-05T17:30:32.658Z,102218.22
2022-10-05T17:33:05.571Z,102219.89
2022-10-05T17:35:55.131Z,102225.28
2022-10-05T17:38:31.489Z,102228.52
2022-10-05T17:41:02.126Z,102231.30
2022-10-05T17:43:34.066Z,102235.84
2022-10-05T17:46:03.785Z,102232.84
2022-10-05T17:48:41.627Z,102228.26
2022-10-05T17:51:54.086Z,102235.52
2022-10-05T17:55:22.368Z,102226.72
2022-10-05T17:57:50.081Z,102233.66
2022-10-05T18:00:26.721Z,102241.08
2022-10-05T18:02:59.274Z,102246.24
2022-10-05T18:05:29.379Z,102244.55
2022-10-05T18:08:32.481Z,102256.25
2022-10-05T18:11:12.173Z,102256.41
2022-10-05T18:13:46.611Z,102259.12
2022-10-05T18:16:15.315Z,102256.91
2022-10-05T18:18:57.050Z,102255.01
2022-10-05T18:21:29.159Z,102265.11
2022-10-05T18:23:59.903Z,102271.06
2022-10-05T18:26:40.558Z,102261.77
2022-10-05T18:29:53.264Z,102277.18
2022-10-05T18:32:27.753Z,102277.02
2022-10-05T18:35:22.759Z,102283.75
2022-10-05T18:38:24.711Z,102282.64
2022-10-05T18:41:10.231Z,102288.59
2022-10-05T18:43:49.125Z,102293.73
2022-10-05T18:46:30.192Z,102297.09
2022-10-05T18:49:22.678Z,102298.86
2022-10-05T18:52:17.445Z,102294.54
2022-10-05T18:54:58.160Z,102306.22
2022-10-05T18:57:42.823Z,102306.70
2022-10-05T19:00:23.985Z,102306.90
2022-10-05T19:03:09.322Z,102309.42
2022-10-05T19:05:47.924Z,102316.98
2022-10-05T19:08:24.431Z,102321.62
2022-10-05T19:11:02.548Z,102324.66
2022-10-05T19:13:44.448Z,102329.30
2022-10-05T19:16:24.187Z,102327.86
2022-10-05T19:19:33.524Z,102334.11
2022-10-05T19:22:37.050Z,102323.52
2022-10-05T19:25:21.626Z,102333.45
2022-10-05T19:27:54.414Z,102331.52
2022-10-05T19:30:28.478Z,102330.91
2022-10-05T19:33:22.621Z,102335.05
2022-10-05T19:36:17.950Z,102339.21
2022-10-05T19:39:10.402Z,102336.49
2022-10-05T19:42:06.942Z,102342.41
2022-10-05T19:44:50.105Z,102338.42
2022-10-05T19:47:33.719Z,102336.17
2022-10-05T19:50:26.737Z,102344.48
2022-10-05T19:53:12.171Z,102342.55
2022-10-05T19:55:46.715Z,102343.85
2022-10-05T19:58:26.223Z,102357.59
2022-10-05T20:01:07.652Z,102361.71
2022-10-05T20:03:39.176Z,102365.11
2022-10-05T20:06:09.433Z,102370.05
2022-10-05T20:08:46.270Z,102371.32
2022-10-05T20:11:20.853Z,102373.41
2022-10-05T20:14:10.514Z,102379.59
2022-10-05T20:16:56.697Z,102389.50
2022-10-05T20:19:54.804Z,102386.63
2022-10-05T20:22:27.648Z,102397.84
2022-10-05T20:24:57.895Z,102404.05
2022-10-05T20:27:45.533Z,102409.35
2022-10-05T20:30:17.217Z,102415.56
2022-10-05T20:32:47.862Z,102410.27
2022-10-05T20:35:17.509Z,102420.99
2022-10-05T20:37:45.460Z,102422.27
2022-10-05T20:40:13.797Z,102434.23
2022-10-05T20:42:41.531Z,102435.84
2022-10-05T20:45:09.888Z,102442.41
2022-10-05T20:47:38.765Z,102444.02
2022-10-05T20:50:10.164Z,102444.47
2022-10-05T20:52:38.646Z,102446.56
2022-10-05T20:55:11.972Z,102442.09
2022-10-05T20:57:43.042Z,102462.23
2022-10-05T21:00:12.987Z,102465.56
2022-10-05T21:02:41.082Z,102470.66
2022-10-05T21:05:09.459Z,102479.30
2022-10-05T21:07:37.264Z,102481.81
2022-10-05T21:10:05.313Z,102482.80
2022-10-05T21:12:35.081Z,102480.05
2022-10-05T21:15:05.774Z,102485.94
2022-10-05T21:17:37.526Z,102483.55
2022-10-05T21:20:05.410Z,102491.04
2022-10-05T21:22:33.266Z,102487.02
2022-10-05T21:25:01.139Z,102496.92
2022-10-05T21:27:29.401Z,102494.50
2022-10-05T21:29:57.137Z,102493.39
2022-10-05T21:32:25.161Z,102498.33
2022-10-05T21:34:52.810Z,102512.06
2022-10-05T21:37:20.971Z,102510.10
2022-10-05T21:39:48.751Z,102519.23
2022-10-05T21:42:16.556Z,102516.80
2022-10-05T21:44:44.282Z,102523.84
2022-10-05T21:47:12.162Z,102523.51
2022-10-05T21:49:39.908Z,102522.37
2022-10-05T21:52:07.886Z,102528.58
2022-10-05T21:54:36.194Z,102531.26
2022-10-05T21:57:04.241Z,102534.27
2022-10-05T21:59:35.576Z,102535.18
2022-10-05T22:02:03.845Z,102543.03
2022-10-05T22:04:32.157Z,102536.13
2022-10-05T22:07:00.376Z,102536.26
2022-10-05T22:09:28.147Z,102537.21
2022-10-05T22:11:56.123Z,102542.15
2022-10-05T22:14:23.734Z,102537.02
2022-10-05T22:16:51.432Z,102542.73
2022-10-05T22:19:21.200Z,102537.57
2022-10-05T22:21:48.846Z,102537.24
2022-10-05T22:24:16.584Z,102534.04
2022-10-05T22:26:47.858Z,102535.77
2022-10-05T22:29:17.272Z,102539.56
2022-10-05T22:31:47.393Z,102539.23
2022-10-05T22:34:15.928Z,102551.20
2022-10-05T22:36:43.675Z,102556.27
2022-10-05T22:39:11.383Z,102548.91
2022-10-05T22:41:38.988Z,102552.71
2022-10-05T22:44:06.965Z,102553.62
2022-10-05T22:46:34.898Z,102558.37
2022-10-05T22:49:03.441Z,102558.01
2022-10-05T22:51:31.495Z,102556.08
2022-10-05T22:53:59.399Z,102561.02
2022-10-05T22:56:28.419Z,102562.29
2022-10-05T22:58:56.216Z,102559.19
2022-10-05T23:01:23.947Z,102563.34
2022-10-05T23:03:51.659Z,102565.40
2022-10-05T23:06:21.686Z,102568.41
2022-10-05T23:08:49.394Z,102567.23
2022-10-05T23:11:20.101Z,102574.23
2022-10-05T23:13:47.942Z,102583.19
2022-10-05T23:16:18.134Z,102579.98
2022-10-05T23:18:48.610Z,102578.80
2022-10-05T23:21:16.636Z,102577.56
2022-10-05T23:23:48.437Z,102573.08
2022-10-05T23:26:17.114Z,102583.88
2022-10-05T23:28:48.295Z,102587.89
2022-10-05T23:31:18.396Z,102579.75
2022-10-05T23:33:46.246Z,102579.75
2022-10-05T23:36:16.737Z,102583.05
2022-10-05T23:38:44.397Z,102587.30
2022-10-05T23:41:13.044Z,102589.50
2022-10-05T23:43:41.278Z,102593.75
2022-10-05T23:46:09.798Z,102589.27
2022-10-05T23:48:40.660Z,102591.82
2022-10-05T23:51:10.450Z,102596.73
2022-10-05T23:53:38.786Z,102594.80
2022-10-05T23:56:06.908Z,102600.19
2022-10-05T23:58:34.532Z,102599.05
